KBKD/BKD METAR and TAF weather

Enter ICAO airport designator
Station Type Date Time Source
KBKD METAR 2022/11/26 08:55 UTC NOAA

KBKD 260855Z AUTO 28005KT 3SM RA OVC003 07/07 A3008 RMK AO2 P0013 60030 T00730073


Station Type Date Time Source
KBKD Decoded METAR 2022/11/26 08:55 UTC NOAA

Station name not available
Nov 26, 2022 - 03:55 AM EST / 2022.11.26 0855 UTC
Wind: from the W (280 degrees) at 6 MPH (5 KT):0
Visibility: 3 mile(s):0
Sky conditions: overcast
Weather: rain
Precipitation last hour: 0.13 inches
Temperature: 45.1 F (7.3 C)
Dew Point: 45.1 F (7.3 C)
Relative Humidity: 100%
Pressure (altimeter): 30.08 in. Hg (1018 hPa)
ob: KBKD 260855Z AUTO 28005KT 3SM RA OVC003 07/07 A3008 RMK AO2 P0013 60030 T00730073
cycle: 9

Station Type Date Time Source
KBKD TAF UTC NOAA

Error!

Example: see airport list